createdAt,value
2023-03-15T00:00:02.754Z,65.76
2023-03-15T00:02:53.453Z,66.14
2023-03-15T00:05:24.247Z,66.21
2023-03-15T00:07:54.819Z,66.10
2023-03-15T00:10:25.762Z,65.81
2023-03-15T00:12:56.845Z,65.63
2023-03-15T00:15:27.598Z,65.49
2023-03-15T00:17:58.304Z,65.84
2023-03-15T00:20:29.138Z,65.97
2023-03-15T00:22:59.765Z,65.57
2023-03-15T00:25:30.891Z,65.73
2023-03-15T00:28:01.608Z,65.53
2023-03-15T00:30:32.402Z,65.65
2023-03-15T00:33:05.766Z,65.59
2023-03-15T00:35:39.540Z,65.93
2023-03-15T00:38:11.102Z,65.77
2023-03-15T00:40:41.985Z,65.63
2023-03-15T00:43:17.903Z,65.79
2023-03-15T00:45:49.181Z,65.59
2023-03-15T00:48:19.856Z,65.97
2023-03-15T00:50:50.547Z,66.30
2023-03-15T00:53:22.592Z,66.05
2023-03-15T00:55:53.277Z,66.11
2023-03-15T00:58:24.901Z,66.07
2023-03-15T01:00:57.286Z,66.11
2023-03-15T01:03:28.347Z,66.30
2023-03-15T01:05:59.471Z,66.42
2023-03-15T01:08:30.281Z,66.66
2023-03-15T01:11:05.404Z,66.50
2023-03-15T01:13:36.357Z,66.33
2023-03-15T01:16:08.661Z,66.96
2023-03-15T01:18:38.481Z,66.94
2023-03-15T01:21:12.837Z,67.00
2023-03-15T01:23:44.085Z,67.12
2023-03-15T01:26:16.093Z,67.31
2023-03-15T01:28:48.309Z,67.55
2023-03-15T01:31:21.277Z,67.90
2023-03-15T01:33:52.508Z,67.91
2023-03-15T01:36:23.711Z,67.63
2023-03-15T01:38:55.275Z,67.65
2023-03-15T01:41:31.314Z,67.55
2023-03-15T01:44:02.102Z,67.55
2023-03-15T01:46:35.847Z,67.06
2023-03-15T01:49:23.142Z,67.77
2023-03-15T01:51:58.450Z,67.94
2023-03-15T01:54:35.091Z,67.98
2023-03-15T01:57:09.788Z,68.03
2023-03-15T01:59:45.310Z,68.09
2023-03-15T02:02:16.861Z,68.36
2023-03-15T02:04:51.845Z,68.61
2023-03-15T02:07:27.116Z,68.59
2023-03-15T02:10:03.386Z,68.49
2023-03-15T02:12:39.696Z,68.83
2023-03-15T02:15:12.950Z,68.27
2023-03-15T02:17:46.751Z,69.07
2023-03-15T02:20:27.542Z,68.63
2023-03-15T02:23:01.265Z,68.62
2023-03-15T02:25:40.772Z,68.57
2023-03-15T02:28:14.897Z,68.64
2023-03-15T02:30:47.696Z,68.60
2023-03-15T02:33:24.152Z,68.67
2023-03-15T02:35:58.071Z,68.68
2023-03-15T02:38:28.898Z,68.51
2023-03-15T02:40:59.843Z,68.94
2023-03-15T02:43:33.082Z,69.10
2023-03-15T02:46:05.555Z,68.90
2023-03-15T02:48:37.878Z,69.16
2023-03-15T02:51:17.491Z,69.30
2023-03-15T02:53:48.304Z,69.18
2023-03-15T02:56:19.365Z,69.22
2023-03-15T02:58:50.775Z,69.28
2023-03-15T03:01:21.875Z,69.24
2023-03-15T03:03:52.637Z,69.08
2023-03-15T03:06:23.830Z,68.96
2023-03-15T03:08:54.781Z,69.46
2023-03-15T03:11:26.581Z,69.42
2023-03-15T03:13:59.526Z,69.00
2023-03-15T03:16:32.131Z,69.01
2023-03-15T03:19:04.194Z,69.00
2023-03-15T03:21:38.253Z,69.17
2023-03-15T03:24:10.046Z,68.86
2023-03-15T03:26:40.662Z,68.84
2023-03-15T03:29:11.730Z,68.80
2023-03-15T03:31:42.395Z,69.16
2023-03-15T03:34:15.771Z,69.55
2023-03-15T03:36:48.554Z,69.12
2023-03-15T03:39:22.234Z,69.39
2023-03-15T03:41:52.994Z,68.98
2023-03-15T03:44:24.554Z,69.04
2023-03-15T03:46:55.382Z,69.45
2023-03-15T03:49:26.244Z,69.23
2023-03-15T03:51:57.113Z,69.57
2023-03-15T03:54:28.446Z,69.55
2023-03-15T03:56:59.240Z,69.81
2023-03-15T03:59:33.336Z,69.78
2023-03-15T04:02:08.456Z,69.72
2023-03-15T04:04:41.391Z,70.27
2023-03-15T04:07:17.121Z,70.31
2023-03-15T04:09:48.145Z,70.02
2023-03-15T04:12:18.948Z,70.11
2023-03-15T04:14:51.359Z,69.98
2023-03-15T04:17:23.312Z,69.99
2023-03-15T04:19:54.174Z,69.74
2023-03-15T04:22:29.775Z,70.12
2023-03-15T04:25:21.771Z,70.05
2023-03-15T04:28:02.853Z,69.99
2023-03-15T04:31:10.773Z,70.65
2023-03-15T04:34:02.367Z,70.38
2023-03-15T04:36:54.849Z,70.41
2023-03-15T04:39:52.584Z,70.39
2023-03-15T04:42:46.631Z,70.43
2023-03-15T04:45:40.478Z,70.54
2023-03-15T04:48:26.775Z,70.83
2023-03-15T04:51:10.254Z,70.54
2023-03-15T04:53:46.472Z,70.66
2023-03-15T04:56:37.817Z,70.92
2023-03-15T04:59:27.848Z,70.61
2023-03-15T05:02:17.401Z,70.36
2023-03-15T05:05:14.676Z,70.39
2023-03-15T05:08:08.246Z,70.23
2023-03-15T05:10:50.026Z,70.34
2023-03-15T05:13:47.598Z,70.22
2023-03-15T05:16:36.806Z,70.01
2023-03-15T05:19:20.198Z,70.51
2023-03-15T05:22:05.279Z,70.70
2023-03-15T05:24:54.699Z,70.55
2023-03-15T05:27:48.184Z,70.75
2023-03-15T05:30:42.687Z,70.61
2023-03-15T05:33:26.267Z,70.44
2023-03-15T05:36:31.491Z,70.36
2023-03-15T05:39:22.959Z,70.53
2023-03-15T05:42:15.726Z,70.59
2023-03-15T05:45:03.426Z,70.49
2023-03-15T05:48:00.636Z,70.73
2023-03-15T05:50:43.681Z,70.52
2023-03-15T05:53:45.314Z,70.50
2023-03-15T05:56:43.358Z,70.48
2023-03-15T05:59:40.440Z,69.98
2023-03-15T06:02:27.978Z,70.26
2023-03-15T06:05:11.499Z,69.61
2023-03-15T06:07:42.142Z,69.44
2023-03-15T06:10:14.256Z,69.05
2023-03-15T06:12:45.770Z,69.17
2023-03-15T06:15:16.962Z,69.01
2023-03-15T06:17:48.082Z,68.91
2023-03-15T06:20:20.330Z,68.02
2023-03-15T06:22:51.307Z,67.95
2023-03-15T06:25:45.271Z,68.70
2023-03-15T06:28:16.051Z,69.36
2023-03-15T06:30:51.139Z,67.15
2023-03-15T06:33:24.370Z,68.98
2023-03-15T06:35:54.056Z,66.59
2023-03-15T06:38:25.144Z,70.33
2023-03-15T06:40:58.374Z,68.16
2023-03-15T06:43:30.655Z,70.29
2023-03-15T06:46:01.581Z,62.09
2023-03-15T06:48:32.624Z,58.71
2023-03-15T06:51:04.098Z,57.68
2023-03-15T06:53:36.156Z,57.26
2023-03-15T06:56:08.397Z,57.44
2023-03-15T06:58:39.025Z,56.76
2023-03-15T07:01:12.543Z,56.50
2023-03-15T07:03:43.739Z,55.75
2023-03-15T07:06:14.570Z,55.37
2023-03-15T07:08:45.219Z,54.91
2023-03-15T07:11:16.089Z,54.96
2023-03-15T07:13:46.866Z,54.21
2023-03-15T07:16:17.512Z,55.20
2023-03-15T07:18:48.406Z,54.28
2023-03-15T07:21:19.243Z,53.54
2023-03-15T07:23:49.848Z,52.48
2023-03-15T07:26:20.610Z,51.95
2023-03-15T07:28:51.366Z,51.97
2023-03-15T07:31:22.492Z,52.07
2023-03-15T07:33:53.245Z,51.83
2023-03-15T07:36:23.964Z,50.72
2023-03-15T07:38:54.585Z,50.87
2023-03-15T07:41:25.541Z,50.35
2023-03-15T07:44:01.145Z,50.50
2023-03-15T07:46:32.015Z,49.92
2023-03-15T07:49:02.862Z,49.09
2023-03-15T07:51:33.605Z,47.75
2023-03-15T07:54:04.228Z,48.69
2023-03-15T07:56:35.053Z,48.69
2023-03-15T07:59:05.697Z,48.09
2023-03-15T08:01:36.477Z,48.63
2023-03-15T08:04:07.402Z,48.83
2023-03-15T08:06:38.094Z,49.14
2023-03-15T08:09:08.865Z,48.71
2023-03-15T08:11:40.088Z,47.81
2023-03-15T08:14:10.763Z,48.47
2023-03-15T08:16:41.938Z,48.61
2023-03-15T08:19:13.202Z,48.22
2023-03-15T08:21:45.305Z,47.74
2023-03-15T08:24:16.433Z,48.28
2023-03-15T08:26:47.132Z,48.46
2023-03-15T08:29:17.959Z,49.12
2023-03-15T08:31:48.725Z,49.62
2023-03-15T08:34:19.582Z,50.21
2023-03-15T08:36:51.165Z,50.37
2023-03-15T08:39:23.983Z,50.44
2023-03-15T08:41:54.114Z,50.95
2023-03-15T08:44:24.850Z,51.70
2023-03-15T08:46:55.626Z,52.38
2023-03-15T08:49:26.752Z,53.23
2023-03-15T08:51:57.424Z,54.71
2023-03-15T08:54:28.434Z,57.06
2023-03-15T08:56:59.314Z,58.47
2023-03-15T08:59:32.031Z,60.57
2023-03-15T09:02:04.095Z,61.68
2023-03-15T09:04:35.826Z,62.47
2023-03-15T09:07:06.733Z,62.96
2023-03-15T09:09:37.532Z,63.17
2023-03-15T09:12:09.506Z,63.52
2023-03-15T09:14:40.249Z,64.37
2023-03-15T09:17:11.300Z,65.28
2023-03-15T09:19:42.298Z,65.98
2023-03-15T09:22:17.226Z,66.21
2023-03-15T09:24:54.219Z,66.44
2023-03-15T09:27:24.829Z,66.69
2023-03-15T09:29:55.588Z,66.81
2023-03-15T09:32:26.295Z,67.26
2023-03-15T09:34:57.387Z,66.91
2023-03-15T09:37:28.927Z,66.27
2023-03-15T09:39:59.591Z,66.12
2023-03-15T09:42:38.915Z,65.83
2023-03-15T09:45:19.349Z,65.62
2023-03-15T09:48:01.580Z,65.16
2023-03-15T09:50:37.914Z,65.77
2023-03-15T09:53:15.353Z,65.54
2023-03-15T09:55:49.820Z,65.58
2023-03-15T09:58:25.402Z,65.63
2023-03-15T10:00:59.545Z,65.46
2023-03-15T10:03:36.076Z,65.58
2023-03-15T10:06:14.264Z,65.50
2023-03-15T10:08:45.440Z,65.21
2023-03-15T10:11:22.296Z,64.57
2023-03-15T10:14:10.031Z,63.75
2023-03-15T10:16:46.381Z,63.48
2023-03-15T10:19:33.301Z,63.46
2023-03-15T10:22:14.088Z,63.48
2023-03-15T10:24:52.292Z,63.73
2023-03-15T10:27:27.623Z,63.76
2023-03-15T10:29:59.824Z,63.48
2023-03-15T10:32:38.978Z,63.77
2023-03-15T10:35:17.651Z,63.60
2023-03-15T10:37:48.530Z,62.93
2023-03-15T10:40:44.299Z,63.02
2023-03-15T10:43:23.732Z,63.25
2023-03-15T10:46:05.387Z,63.08
2023-03-15T10:48:37.615Z,63.24
2023-03-15T10:51:17.123Z,62.96
2023-03-15T10:53:56.589Z,63.00
2023-03-15T10:56:29.156Z,63.12
2023-03-15T10:59:12.238Z,63.10
2023-03-15T11:01:44.510Z,63.11
2023-03-15T11:04:22.687Z,63.03
2023-03-15T11:07:03.503Z,62.83
2023-03-15T11:09:43.521Z,62.29
2023-03-15T11:12:24.294Z,62.31
2023-03-15T11:14:57.925Z,62.05
2023-03-15T11:17:31.865Z,61.86
2023-03-15T11:20:13.075Z,61.46
2023-03-15T11:22:44.118Z,61.38
2023-03-15T11:25:18.659Z,61.46
2023-03-15T11:27:53.628Z,61.84
2023-03-15T11:30:28.657Z,61.65
2023-03-15T11:33:10.068Z,61.30
2023-03-15T11:35:48.316Z,60.97
2023-03-15T11:38:26.234Z,60.22
2023-03-15T11:41:01.012Z,60.20
2023-03-15T11:43:41.434Z,60.18
2023-03-15T11:46:19.964Z,59.39
2023-03-15T11:48:55.161Z,59.12
2023-03-15T11:51:25.985Z,58.93
2023-03-15T11:54:15.490Z,58.77
2023-03-15T11:56:53.364Z,58.50
2023-03-15T11:59:29.451Z,58.81
2023-03-15T12:02:08.794Z,59.23
2023-03-15T12:04:45.649Z,58.97
2023-03-15T12:07:58.052Z,58.86
2023-03-15T12:10:47.461Z,58.47
2023-03-15T12:13:25.809Z,58.67
2023-03-15T12:15:57.671Z,58.53
2023-03-15T12:18:43.827Z,57.79
2023-03-15T12:21:22.364Z,58.05
2023-03-15T12:24:01.763Z,57.95
2023-03-15T12:26:44.675Z,58.08
2023-03-15T12:29:25.949Z,57.99
2023-03-15T12:32:07.761Z,58.12
2023-03-15T12:34:46.496Z,57.93
2023-03-15T12:37:21.721Z,57.79
2023-03-15T12:40:01.898Z,57.99
2023-03-15T12:43:09.942Z,57.07
2023-03-15T12:45:46.563Z,56.98
2023-03-15T12:48:27.130Z,57.37
2023-03-15T12:51:38.727Z,57.14
2023-03-15T12:57:26.959Z,56.65
2023-03-15T13:00:00.946Z,56.96
2023-03-15T13:02:43.858Z,56.86
2023-03-15T13:05:21.259Z,56.72
2023-03-15T13:07:57.643Z,56.46
2023-03-15T13:10:40.677Z,56.37
2023-03-15T13:13:26.468Z,56.71
2023-03-15T13:16:17.925Z,56.62
2023-03-15T13:18:59.339Z,56.91
2023-03-15T13:21:35.518Z,56.56
2023-03-15T13:24:13.966Z,56.25
2023-03-15T13:26:56.787Z,55.86
2023-03-15T13:29:31.344Z,55.91
2023-03-15T13:32:15.717Z,55.67
2023-03-15T13:34:48.453Z,56.07
2023-03-15T13:37:22.873Z,55.67
2023-03-15T13:40:00.761Z,55.65
2023-03-15T13:42:31.531Z,55.23
2023-03-15T13:45:16.029Z,54.82
2023-03-15T13:47:48.015Z,54.13
2023-03-15T13:50:22.205Z,53.65
2023-03-15T13:52:52.923Z,53.36
2023-03-15T13:55:25.607Z,52.84
2023-03-15T13:58:00.986Z,52.76
2023-03-15T14:00:34.941Z,52.79
2023-03-15T14:03:13.187Z,53.06
2023-03-15T14:05:49.380Z,53.59
2023-03-15T14:08:25.757Z,53.75
2023-03-15T14:11:10.148Z,54.11
2023-03-15T14:13:52.822Z,54.81
2023-03-15T14:16:35.650Z,55.19
2023-03-15T14:19:20.657Z,54.79
2023-03-15T14:21:53.242Z,53.88
2023-03-15T14:24:31.044Z,54.29
2023-03-15T14:27:06.361Z,53.40
2023-03-15T14:29:39.931Z,53.15
2023-03-15T14:32:27.514Z,52.80
2023-03-15T14:35:03.734Z,52.43
2023-03-15T14:37:40.196Z,52.29
2023-03-15T14:40:20.962Z,52.30
2023-03-15T14:42:52.653Z,51.98
2023-03-15T14:45:24.063Z,51.68
2023-03-15T14:47:59.108Z,50.89
2023-03-15T14:50:34.325Z,50.67
2023-03-15T14:53:07.401Z,51.15
2023-03-15T14:55:39.078Z,51.40
2023-03-15T14:58:15.385Z,51.70
2023-03-15T15:00:48.090Z,50.93
2023-03-15T15:03:19.188Z,50.36
2023-03-15T15:05:48.338Z,49.91
2023-03-15T15:08:23.219Z,50.13
2023-03-15T15:10:57.032Z,49.91
2023-03-15T15:13:29.313Z,49.30
2023-03-15T15:16:00.797Z,49.11
2023-03-15T15:18:33.002Z,48.06
2023-03-15T15:21:05.523Z,48.22
2023-03-15T15:23:54.874Z,47.78
2023-03-15T15:26:29.797Z,48.24
2023-03-15T15:29:00.824Z,48.96
2023-03-15T15:31:34.348Z,48.91
2023-03-15T15:34:05.419Z,48.85
2023-03-15T15:36:39.470Z,48.91
2023-03-15T15:39:21.421Z,49.07
2023-03-15T15:41:52.972Z,49.73
2023-03-15T15:44:26.085Z,50.19
2023-03-15T15:46:57.205Z,50.63
2023-03-15T15:49:27.907Z,50.83
2023-03-15T15:51:58.844Z,50.53
2023-03-15T15:54:31.647Z,50.52
2023-03-15T15:57:03.761Z,50.57
2023-03-15T15:59:34.392Z,50.67
2023-03-15T16:02:13.907Z,50.64
2023-03-15T16:04:44.770Z,50.84
2023-03-15T16:07:16.510Z,50.79
2023-03-15T16:09:49.370Z,51.19
2023-03-15T16:12:19.461Z,51.29
2023-03-15T16:14:51.025Z,51.42
2023-03-15T16:17:23.776Z,51.69
2023-03-15T16:19:55.355Z,51.71
2023-03-15T16:22:29.638Z,51.90
2023-03-15T16:25:01.702Z,52.10
2023-03-15T16:27:32.739Z,52.13
2023-03-15T16:30:04.626Z,52.15
2023-03-15T16:32:44.025Z,52.06
2023-03-15T16:35:16.618Z,52.05
2023-03-15T16:37:48.346Z,52.47
2023-03-15T16:40:23.472Z,52.76
2023-03-15T16:42:54.321Z,52.89
2023-03-15T16:45:26.055Z,52.95
2023-03-15T16:47:56.744Z,53.00
2023-03-15T16:50:27.931Z,53.09
2023-03-15T16:53:00.991Z,53.09
2023-03-15T16:55:33.940Z,52.91
2023-03-15T16:58:04.577Z,52.89
2023-03-15T17:00:35.448Z,53.05
2023-03-15T17:03:06.174Z,52.89
2023-03-15T17:05:37.203Z,52.92
2023-03-15T17:08:11.416Z,53.01
2023-03-15T17:10:43.210Z,52.83
2023-03-15T17:13:17.239Z,52.74
2023-03-15T17:15:47.991Z,52.92
2023-03-15T17:18:22.700Z,52.79
2023-03-15T17:20:53.618Z,52.68
2023-03-15T17:23:24.411Z,52.64
2023-03-15T17:25:55.216Z,52.66
2023-03-15T17:28:25.863Z,52.87
2023-03-15T17:31:14.064Z,52.83
2023-03-15T17:33:47.707Z,53.00
2023-03-15T17:36:22.217Z,53.22
2023-03-15T17:38:54.263Z,53.09
2023-03-15T17:41:28.025Z,53.19
2023-03-15T17:43:58.944Z,66.47
2023-03-15T17:46:33.068Z,66.07
2023-03-15T17:49:04.966Z,58.33
2023-03-15T17:51:37.800Z,56.90
2023-03-15T17:54:16.886Z,56.83
2023-03-15T17:56:47.700Z,56.58
2023-03-15T17:59:18.405Z,56.87
2023-03-15T18:01:49.272Z,56.47
2023-03-15T18:04:21.910Z,56.80
2023-03-15T18:06:54.062Z,57.14
2023-03-15T18:09:26.378Z,57.19
2023-03-15T18:11:57.130Z,57.02
2023-03-15T18:14:27.776Z,57.65
2023-03-15T18:16:59.459Z,57.77
2023-03-15T18:19:30.292Z,57.84
2023-03-15T18:22:00.905Z,58.24
2023-03-15T18:24:34.401Z,58.28
2023-03-15T18:27:05.102Z,58.30
2023-03-15T18:29:35.842Z,58.86
2023-03-15T18:32:07.026Z,58.60
2023-03-15T18:34:37.906Z,58.94
2023-03-15T18:37:09.809Z,59.66
2023-03-15T18:39:40.688Z,59.67
2023-03-15T18:42:12.119Z,59.30
2023-03-15T18:44:43.971Z,59.90
2023-03-15T18:47:15.696Z,60.22
2023-03-15T18:49:46.475Z,60.77
2023-03-15T18:52:17.644Z,60.72
2023-03-15T18:54:48.278Z,60.66
2023-03-15T18:57:20.535Z,60.26
2023-03-15T18:59:51.403Z,60.54
2023-03-15T19:02:22.071Z,60.77
2023-03-15T19:04:52.797Z,60.92
2023-03-15T19:07:23.426Z,61.42
2023-03-15T19:09:54.163Z,61.33
2023-03-15T19:12:24.880Z,61.05
2023-03-15T19:14:55.627Z,61.10
2023-03-15T19:17:26.631Z,61.60
2023-03-15T19:19:57.399Z,61.09
2023-03-15T19:22:31.103Z,62.02
2023-03-15T19:25:02.133Z,62.05
2023-03-15T19:27:33.017Z,62.19
2023-03-15T19:30:03.687Z,62.41
2023-03-15T19:32:34.377Z,62.20
2023-03-15T19:35:06.093Z,62.16
2023-03-15T19:37:38.277Z,62.31
2023-03-15T19:40:12.030Z,64.82
2023-03-15T19:42:42.785Z,63.11
2023-03-15T19:45:14.567Z,63.26
2023-03-15T19:47:45.270Z,63.22
2023-03-15T19:50:16.794Z,62.91
2023-03-15T19:52:47.534Z,63.33
2023-03-15T19:55:20.387Z,63.62
2023-03-15T19:57:51.240Z,63.78
2023-03-15T20:00:25.198Z,63.78
2023-03-15T20:02:56.054Z,63.98
2023-03-15T20:05:26.819Z,64.23
2023-03-15T20:07:57.575Z,64.16
2023-03-15T20:10:28.265Z,64.35
2023-03-15T20:12:59.264Z,64.32
2023-03-15T20:15:30.690Z,64.80
2023-03-15T20:18:02.517Z,64.75
2023-03-15T20:20:33.193Z,64.47
2023-03-15T20:23:03.889Z,64.61
2023-03-15T20:25:35.525Z,65.08
2023-03-15T20:28:06.422Z,65.36
2023-03-15T20:30:39.395Z,65.09
2023-03-15T20:33:10.602Z,65.26
2023-03-15T20:35:41.438Z,68.81
2023-03-15T20:38:13.232Z,66.34
2023-03-15T20:40:46.100Z,66.13
2023-03-15T20:43:17.319Z,66.37
2023-03-15T20:45:48.043Z,66.18
2023-03-15T20:48:22.011Z,66.22
2023-03-15T20:50:53.316Z,66.54
2023-03-15T20:53:24.551Z,66.20
2023-03-15T20:55:55.260Z,66.63
2023-03-15T20:58:26.252Z,67.07
2023-03-15T21:01:06.977Z,67.43
2023-03-15T21:03:38.372Z,67.25
2023-03-15T21:06:10.338Z,67.22
2023-03-15T21:08:41.700Z,67.20
2023-03-15T21:11:12.413Z,67.23
2023-03-15T21:13:43.195Z,67.55
2023-03-15T21:16:15.430Z,67.50
2023-03-15T21:18:51.776Z,67.88
2023-03-15T21:21:23.256Z,67.84
2023-03-15T21:23:54.884Z,67.94
2023-03-15T21:26:25.593Z,67.89
2023-03-15T21:28:56.840Z,67.89
2023-03-15T21:31:27.554Z,68.21
2023-03-15T21:33:58.188Z,68.03
2023-03-15T21:36:28.733Z,68.09
2023-03-15T21:38:59.847Z,68.44
2023-03-15T21:41:31.808Z,68.12
2023-03-15T21:44:02.590Z,67.90
2023-03-15T21:46:33.731Z,67.85
2023-03-15T21:49:05.315Z,68.13
2023-03-15T21:51:36.031Z,68.35
2023-03-15T21:54:07.066Z,68.32
2023-03-15T21:56:37.791Z,68.40
2023-03-15T21:59:09.227Z,68.38
2023-03-15T22:01:39.953Z,68.69
2023-03-15T22:04:10.639Z,68.36
2023-03-15T22:06:41.258Z,70.49
2023-03-15T22:09:11.926Z,78.35
2023-03-15T22:11:42.553Z,71.19
2023-03-15T22:14:13.361Z,69.52
2023-03-15T22:16:44.346Z,68.94
2023-03-15T22:19:15.064Z,68.72
2023-03-15T22:21:45.695Z,68.59
2023-03-15T22:24:16.576Z,68.74
2023-03-15T22:26:47.169Z,68.39
2023-03-15T22:29:17.921Z,68.52
2023-03-15T22:31:48.502Z,68.78
2023-03-15T22:34:19.674Z,68.73
2023-03-15T22:36:50.288Z,71.16
2023-03-15T22:39:22.163Z,70.79
2023-03-15T22:41:52.873Z,69.57
2023-03-15T22:44:23.511Z,69.00
2023-03-15T22:46:54.163Z,69.18
2023-03-15T22:49:25.001Z,69.14
2023-03-15T22:51:55.646Z,70.47
2023-03-15T22:54:26.366Z,76.13
2023-03-15T22:56:56.994Z,71.16
2023-03-15T22:59:29.104Z,70.13
2023-03-15T23:01:59.800Z,69.55
2023-03-15T23:04:30.999Z,69.00
2023-03-15T23:07:01.796Z,69.00
2023-03-15T23:09:32.511Z,68.99
2023-03-15T23:12:03.269Z,68.87
2023-03-15T23:14:34.719Z,69.00
2023-03-15T23:17:05.622Z,68.89
2023-03-15T23:19:36.238Z,69.06
2023-03-15T23:22:08.062Z,69.24
2023-03-15T23:24:38.729Z,69.26
2023-03-15T23:27:09.623Z,69.38
2023-03-15T23:29:53.788Z,69.43
2023-03-15T23:32:26.172Z,69.50
2023-03-15T23:34:56.834Z,69.56
2023-03-15T23:37:28.571Z,69.52
2023-03-15T23:39:59.356Z,69.70
2023-03-15T23:42:32.543Z,69.70
2023-03-15T23:45:05.914Z,69.97
2023-03-15T23:47:36.864Z,70.24
2023-03-15T23:50:09.576Z,70.38
2023-03-15T23:52:40.240Z,70.40
2023-03-15T23:55:12.168Z,70.35
2023-03-15T23:57:43.476Z,70.41
